createdAt,value
2022-09-18T00:00:10.973Z,0.00
2022-09-18T00:01:11.028Z,0.00
2022-09-18T00:02:11.309Z,0.00
2022-09-18T00:03:11.718Z,0.00
2022-09-18T00:04:11.395Z,0.00
2022-09-18T00:05:11.676Z,0.00
2022-09-18T00:06:11.474Z,0.00
2022-09-18T00:07:10.899Z,0.00
2022-09-18T00:08:11.011Z,0.00
2022-09-18T00:09:10.902Z,0.00
2022-09-18T00:10:11.018Z,0.00
2022-09-18T00:11:11.026Z,0.00
2022-09-18T00:12:10.908Z,0.00
2022-09-18T00:13:10.876Z,0.00
2022-09-18T00:14:10.899Z,0.00
2022-09-18T00:15:10.905Z,0.00
2022-09-18T00:16:10.947Z,0.00
2022-09-18T00:17:10.952Z,0.00
2022-09-18T00:18:10.869Z,0.00
2022-09-18T00:19:10.837Z,0.00
2022-09-18T00:20:10.848Z,0.00
2022-09-18T00:21:10.836Z,0.00
2022-09-18T00:22:10.908Z,0.00
2022-09-18T00:23:10.846Z,0.00
2022-09-18T00:24:10.869Z,0.00
2022-09-18T00:25:10.892Z,0.00
2022-09-18T00:26:10.835Z,0.00
2022-09-18T00:27:10.806Z,0.00
2022-09-18T00:28:10.827Z,0.00
2022-09-18T00:29:10.754Z,0.00
2022-09-18T00:30:10.814Z,0.00
2022-09-18T00:31:10.880Z,0.00
2022-09-18T00:32:10.834Z,0.00
2022-09-18T00:33:10.796Z,0.00
2022-09-18T00:34:10.983Z,0.00
2022-09-18T00:35:11.004Z,0.00
2022-09-18T00:36:10.782Z,0.00
2022-09-18T00:37:10.994Z,0.00
2022-09-18T00:38:11.020Z,0.00
2022-09-18T00:39:11.012Z,0.00
2022-09-18T00:40:11.098Z,0.00
2022-09-18T00:41:11.022Z,0.00
2022-09-18T00:42:11.002Z,0.00
2022-09-18T00:43:10.822Z,0.00
2022-09-18T00:44:10.703Z,0.00
2022-09-18T00:45:10.711Z,0.00
2022-09-18T00:46:11.095Z,0.00
2022-09-18T00:47:10.851Z,0.00
2022-09-18T00:48:10.691Z,0.00
2022-09-18T00:49:10.688Z,0.00
2022-09-18T00:50:10.661Z,0.00
2022-09-18T00:51:10.672Z,0.00
2022-09-18T00:52:10.681Z,0.00
2022-09-18T00:53:10.688Z,0.00
2022-09-18T00:54:10.781Z,0.00
2022-09-18T00:55:10.779Z,0.00
2022-09-18T00:56:10.788Z,0.00
2022-09-18T00:57:10.916Z,0.00
2022-09-18T00:58:10.919Z,0.00
2022-09-18T00:59:10.601Z,0.00
2022-09-18T01:00:11.019Z,0.00
2022-09-18T01:01:10.787Z,0.00
2022-09-18T01:02:11.083Z,0.00
2022-09-18T01:03:10.972Z,0.00
2022-09-18T01:04:11.170Z,0.00
2022-09-18T01:05:10.585Z,0.00
2022-09-18T01:06:10.777Z,0.00
2022-09-18T01:07:10.608Z,0.00
2022-09-18T01:08:10.987Z,0.00
2022-09-18T01:09:11.200Z,0.00
2022-09-18T01:10:10.886Z,0.00
2022-09-18T01:11:10.687Z,0.00
2022-09-18T01:12:11.014Z,0.00
2022-09-18T01:13:11.296Z,0.00
2022-09-18T01:14:10.505Z,0.00
2022-09-18T01:15:10.515Z,0.00
2022-09-18T01:16:10.851Z,0.00
2022-09-18T01:17:11.422Z,0.00
2022-09-18T01:18:11.334Z,0.00
2022-09-18T01:19:11.147Z,0.00
2022-09-18T01:20:10.465Z,0.00
2022-09-18T01:21:11.156Z,0.00
2022-09-18T01:22:10.476Z,0.00
2022-09-18T01:23:10.464Z,0.00
2022-09-18T01:24:10.413Z,0.00
2022-09-18T01:25:10.486Z,0.00
2022-09-18T01:26:10.431Z,0.00
2022-09-18T01:27:10.494Z,0.00
2022-09-18T01:28:10.505Z,0.00
2022-09-18T01:29:10.516Z,0.00
2022-09-18T01:30:10.525Z,0.00
2022-09-18T01:31:10.412Z,0.00
2022-09-18T01:32:10.381Z,0.00
2022-09-18T01:33:10.332Z,0.00
2022-09-18T01:34:10.381Z,0.00
2022-09-18T01:35:30.159Z,0.00
2022-09-18T01:36:10.352Z,0.00
2022-09-18T01:37:10.583Z,0.00
2022-09-18T01:38:10.361Z,0.00
2022-09-18T01:39:10.582Z,0.00
2022-09-18T01:40:11.811Z,0.00
2022-09-18T01:41:10.381Z,0.00
2022-09-18T01:42:10.601Z,0.00
2022-09-18T01:43:10.391Z,0.00
2022-09-18T01:44:10.642Z,0.00
2022-09-18T01:45:10.711Z,0.00
2022-09-18T01:46:10.707Z,0.00
2022-09-18T01:47:10.519Z,0.00
2022-09-18T01:48:10.270Z,0.00
2022-09-18T01:49:10.739Z,0.00
2022-09-18T01:50:10.243Z,0.00
2022-09-18T01:51:10.749Z,0.00
2022-09-18T01:52:10.413Z,0.00
2022-09-18T01:53:10.267Z,0.00
2022-09-18T01:54:10.368Z,0.00
2022-09-18T01:55:10.269Z,0.00
2022-09-18T01:56:10.383Z,0.00
2022-09-18T01:57:10.220Z,0.00
2022-09-18T01:58:10.187Z,0.00
2022-09-18T01:59:10.503Z,0.00
2022-09-18T02:00:10.188Z,0.00
2022-09-18T02:01:10.354Z,0.00
2022-09-18T02:02:10.592Z,0.00
2022-09-18T02:03:10.828Z,0.00
2022-09-18T02:04:10.426Z,0.00
2022-09-18T02:05:10.157Z,0.00
2022-09-18T02:06:10.487Z,0.00
2022-09-18T02:07:10.906Z,0.00
2022-09-18T02:08:10.149Z,0.00
2022-09-18T02:09:10.158Z,0.00
2022-09-18T02:10:10.173Z,0.00
2022-09-18T02:11:10.124Z,0.00
2022-09-18T02:12:10.106Z,0.00
2022-09-18T02:13:10.115Z,0.00
2022-09-18T02:14:10.204Z,0.00
2022-09-18T02:15:10.195Z,0.00
2022-09-18T02:16:10.343Z,0.00
2022-09-18T02:17:10.314Z,0.00
2022-09-18T02:18:10.334Z,0.00
2022-09-18T02:19:10.083Z,0.00
2022-09-18T02:20:10.565Z,0.00
2022-09-18T02:21:10.563Z,0.00
2022-09-18T02:22:10.344Z,0.00
2022-09-18T02:23:10.669Z,0.00
2022-09-18T02:24:10.364Z,0.00
2022-09-18T02:25:10.572Z,0.00
2022-09-18T02:26:10.062Z,0.00
2022-09-18T02:27:10.003Z,0.00
2022-09-18T02:28:10.002Z,0.00
2022-09-18T02:29:10.073Z,0.00
2022-09-18T02:30:10.082Z,0.00
2022-09-18T02:31:10.239Z,0.00
2022-09-18T02:32:10.012Z,0.00
2022-09-18T02:33:10.018Z,0.00
2022-09-18T02:34:10.222Z,0.00
2022-09-18T02:35:10.021Z,0.00
2022-09-18T02:36:10.029Z,0.00
2022-09-18T02:37:09.899Z,0.00
2022-09-18T02:38:10.040Z,0.00
2022-09-18T02:39:09.931Z,0.00
2022-09-18T02:40:09.950Z,0.00
2022-09-18T02:41:09.919Z,0.00
2022-09-18T02:42:09.970Z,0.00
2022-09-18T02:43:09.881Z,0.00
2022-09-18T02:44:09.905Z,0.00
2022-09-18T02:45:09.918Z,0.00
2022-09-18T02:46:09.925Z,0.00
2022-09-18T02:47:09.888Z,0.00
2022-09-18T02:48:09.958Z,0.00
2022-09-18T02:49:10.247Z,0.00
2022-09-18T02:50:10.009Z,0.00
2022-09-18T02:51:09.928Z,0.00
2022-09-18T02:52:10.067Z,0.00
2022-09-18T02:53:10.087Z,0.00
2022-09-18T02:54:10.089Z,0.00
2022-09-18T02:55:09.839Z,0.00
2022-09-18T02:56:09.787Z,0.00
2022-09-18T02:57:10.049Z,0.00
2022-09-18T02:58:10.138Z,0.00
2022-09-18T02:59:09.778Z,0.00
2022-09-18T03:00:09.745Z,0.00
2022-09-18T03:01:10.127Z,0.00
2022-09-18T03:02:09.857Z,0.00
2022-09-18T03:03:09.813Z,0.00
2022-09-18T03:04:09.817Z,0.00
2022-09-18T03:05:09.826Z,0.00
2022-09-18T03:06:09.762Z,0.00
2022-09-18T03:07:09.929Z,0.00
2022-09-18T03:08:10.053Z,0.00
2022-09-18T03:09:10.057Z,0.00
2022-09-18T03:10:09.675Z,0.00
2022-09-18T03:11:09.864Z,0.00
2022-09-18T03:12:10.154Z,0.00
2022-09-18T03:13:10.285Z,0.00
2022-09-18T03:14:10.293Z,0.00
2022-09-18T03:15:09.886Z,0.00
2022-09-18T03:16:09.709Z,0.00
2022-09-18T03:17:10.393Z,0.00
2022-09-18T03:18:10.184Z,0.00
2022-09-18T03:19:10.413Z,0.00
2022-09-18T03:20:10.421Z,0.00
2022-09-18T03:21:09.622Z,0.00
2022-09-18T03:22:09.601Z,0.00
2022-09-18T03:23:10.341Z,0.00
2022-09-18T03:24:09.611Z,0.00
2022-09-18T03:25:09.615Z,0.00
2022-09-18T03:26:09.624Z,0.00
2022-09-18T03:27:09.762Z,0.00
2022-09-18T03:28:09.769Z,0.00
2022-09-18T03:29:09.643Z,0.00
2022-09-18T03:30:09.852Z,0.00
2022-09-18T03:31:09.835Z,0.00
2022-09-18T03:32:10.000Z,0.00
2022-09-18T03:33:09.582Z,0.00
2022-09-18T03:34:09.885Z,0.00
2022-09-18T03:35:10.026Z,0.00
2022-09-18T03:36:09.819Z,0.00
2022-09-18T03:37:09.628Z,0.00
2022-09-18T03:38:09.518Z,0.00
2022-09-18T03:39:09.638Z,0.00
2022-09-18T03:40:10.331Z,0.00
2022-09-18T03:41:10.270Z,0.00
2022-09-18T03:42:09.659Z,0.00
2022-09-18T03:43:10.280Z,0.00
2022-09-18T03:44:09.468Z,0.00
2022-09-18T03:45:09.881Z,0.00
2022-09-18T03:46:10.256Z,0.00
2022-09-18T03:47:10.107Z,0.00
2022-09-18T03:48:09.498Z,0.00
2022-09-18T03:49:10.328Z,0.00
2022-09-18T03:50:09.919Z,0.00
2022-09-18T03:51:09.418Z,0.00
2022-09-18T03:52:09.417Z,0.00
2022-09-18T03:53:09.417Z,0.00
2022-09-18T03:54:09.427Z,0.00
2022-09-18T03:55:09.590Z,0.00
2022-09-18T03:56:09.556Z,0.00
2022-09-18T03:57:09.559Z,0.00
2022-09-18T03:58:09.566Z,0.00
2022-09-18T03:59:09.575Z,0.00
2022-09-18T04:00:09.656Z,0.00
2022-09-18T04:01:09.375Z,0.00
2022-09-18T04:02:09.696Z,0.00
2022-09-18T04:03:09.444Z,0.00
2022-09-18T04:04:09.394Z,0.00
2022-09-18T04:05:09.405Z,0.00
2022-09-18T04:06:09.475Z,0.00
2022-09-18T04:07:09.624Z,0.00
2022-09-18T04:08:09.633Z,0.00
2022-09-18T04:09:09.634Z,0.00
2022-09-18T04:10:09.644Z,0.00
2022-09-18T04:11:09.703Z,0.00
2022-09-18T04:12:09.721Z,0.00
2022-09-18T04:13:09.721Z,0.00
2022-09-18T04:14:09.467Z,0.00
2022-09-18T04:15:09.881Z,0.00
2022-09-18T04:16:10.002Z,0.00
2022-09-18T04:17:09.952Z,0.00
2022-09-18T04:18:09.291Z,0.00
2022-09-18T04:19:09.702Z,0.00
2022-09-18T04:20:10.122Z,0.00
2022-09-18T04:21:09.371Z,0.00
2022-09-18T04:22:09.201Z,0.00
2022-09-18T04:23:09.378Z,0.00
2022-09-18T04:24:10.101Z,0.00
2022-09-18T04:25:10.010Z,0.00
2022-09-18T04:26:09.750Z,0.00
2022-09-18T04:27:10.073Z,0.00
2022-09-18T04:28:09.559Z,0.00
2022-09-18T04:29:09.359Z,0.00
2022-09-18T04:30:10.040Z,0.00
2022-09-18T04:31:09.197Z,0.00
2022-09-18T04:32:09.180Z,0.00
2022-09-18T04:33:09.589Z,0.00
2022-09-18T04:34:09.099Z,0.00
2022-09-18T04:35:09.109Z,0.00
2022-09-18T04:36:09.089Z,0.00
2022-09-18T04:37:10.465Z,0.00
2022-09-18T04:38:09.119Z,0.00
2022-09-18T04:39:09.100Z,0.00
2022-09-18T04:40:09.298Z,0.00
2022-09-18T04:41:09.061Z,0.00
2022-09-18T04:42:09.091Z,0.00
2022-09-18T04:43:09.097Z,0.00
2022-09-18T04:44:09.077Z,0.00
2022-09-18T04:45:09.047Z,0.00
2022-09-18T04:46:09.147Z,0.00
2022-09-18T04:47:09.080Z,0.00
2022-09-18T04:48:09.161Z,0.00
2022-09-18T04:49:09.305Z,0.00
2022-09-18T04:50:09.356Z,0.00
2022-09-18T04:51:09.168Z,0.00
2022-09-18T04:52:09.318Z,0.00
2022-09-18T04:53:09.116Z,0.00
2022-09-18T04:54:08.955Z,0.00
2022-09-18T04:55:08.975Z,0.00
2022-09-18T04:56:09.337Z,0.00
2022-09-18T04:57:09.006Z,0.00
2022-09-18T04:58:08.936Z,0.00
2022-09-18T04:59:08.936Z,0.00
2022-09-18T05:00:09.155Z,0.00
2022-09-18T05:01:09.486Z,0.00
2022-09-18T05:02:09.545Z,0.00
2022-09-18T05:03:08.906Z,0.00
2022-09-18T05:04:09.222Z,0.00
2022-09-18T05:05:09.403Z,0.00
2022-09-18T05:06:09.404Z,0.00
2022-09-18T05:07:09.434Z,0.00
2022-09-18T05:08:08.874Z,0.00
2022-09-18T05:09:08.863Z,0.00
2022-09-18T05:10:09.433Z,0.00
2022-09-18T05:11:09.081Z,5.62
2022-09-18T05:12:09.034Z,5.62
2022-09-18T05:13:08.850Z,5.62
2022-09-18T05:14:08.841Z,5.62
2022-09-18T05:15:08.892Z,5.62
2022-09-18T05:16:09.011Z,5.62
2022-09-18T05:17:08.823Z,5.62
2022-09-18T05:18:11.513Z,5.62
2022-09-18T05:19:08.919Z,5.62
2022-09-18T05:20:09.091Z,5.62
2022-09-18T05:21:09.101Z,5.62
2022-09-18T05:22:09.101Z,5.62
2022-09-18T05:23:08.812Z,5.62
2022-09-18T05:24:09.159Z,5.62
2022-09-18T05:25:09.331Z,5.62
2022-09-18T05:26:09.343Z,5.62
2022-09-18T05:27:09.348Z,5.62
2022-09-18T05:28:08.770Z,11.25
2022-09-18T05:29:08.749Z,11.25
2022-09-18T05:30:08.773Z,11.25
2022-09-18T05:31:08.819Z,11.25
2022-09-18T05:32:08.843Z,11.25
2022-09-18T05:33:08.778Z,16.88
2022-09-18T05:34:09.527Z,16.88
2022-09-18T05:35:08.788Z,16.88
2022-09-18T05:36:08.697Z,16.88
2022-09-18T05:37:08.736Z,16.88
2022-09-18T05:38:08.721Z,16.88
2022-09-18T05:39:08.717Z,16.88
2022-09-18T05:40:08.755Z,16.88
2022-09-18T05:41:08.790Z,16.88
2022-09-18T05:42:08.856Z,16.88
2022-09-18T05:43:08.856Z,16.88
2022-09-18T05:44:08.867Z,16.88
2022-09-18T05:45:08.875Z,16.88
2022-09-18T05:46:08.724Z,16.88
2022-09-18T05:47:08.886Z,22.50
2022-09-18T05:48:08.887Z,22.50
2022-09-18T05:49:08.885Z,22.50
2022-09-18T05:50:08.678Z,28.12
2022-09-18T05:51:08.893Z,28.12
2022-09-18T05:52:08.896Z,28.12
2022-09-18T05:53:08.716Z,28.12
2022-09-18T05:54:08.736Z,28.12
2022-09-18T05:55:08.723Z,28.12
2022-09-18T05:56:08.724Z,33.75
2022-09-18T05:57:08.733Z,28.12
2022-09-18T05:58:08.751Z,33.75
2022-09-18T05:59:08.763Z,33.75
2022-09-18T06:00:08.994Z,33.75
2022-09-18T06:01:09.002Z,39.38
2022-09-18T06:02:08.676Z,39.38
2022-09-18T06:03:08.603Z,39.38
2022-09-18T06:04:08.566Z,39.38
2022-09-18T06:05:08.994Z,39.38
2022-09-18T06:06:09.234Z,39.38
2022-09-18T06:07:08.599Z,39.38
2022-09-18T06:08:09.256Z,39.38
2022-09-18T06:09:08.613Z,39.38
2022-09-18T06:10:09.009Z,45.00
2022-09-18T06:11:09.243Z,39.38
2022-09-18T06:12:08.891Z,45.00
2022-09-18T06:13:08.441Z,50.62
2022-09-18T06:14:08.882Z,39.38
2022-09-18T06:15:08.870Z,45.00
2022-09-18T06:16:08.561Z,50.62
2022-09-18T06:17:08.460Z,39.38
2022-09-18T06:18:08.571Z,50.62
2022-09-18T06:19:09.336Z,56.25
2022-09-18T06:20:09.321Z,56.25
2022-09-18T06:21:09.090Z,61.88
2022-09-18T06:22:08.500Z,50.62
2022-09-18T06:23:08.498Z,56.25
2022-09-18T06:24:09.321Z,45.00
2022-09-18T06:25:08.940Z,61.88
2022-09-18T06:26:12.771Z,61.88
2022-09-18T06:27:08.421Z,78.75
2022-09-18T06:28:08.532Z,67.50
2022-09-18T06:29:08.739Z,67.50
2022-09-18T06:30:08.437Z,61.88
2022-09-18T06:31:08.422Z,61.88
2022-09-18T06:32:08.387Z,56.25
2022-09-18T06:33:08.368Z,56.25
2022-09-18T06:34:08.379Z,45.00
2022-09-18T06:35:08.328Z,45.00
2022-09-18T06:36:08.397Z,67.50
2022-09-18T06:37:08.387Z,67.50
2022-09-18T06:38:08.416Z,56.25
2022-09-18T06:39:08.636Z,61.88
2022-09-18T06:40:08.665Z,50.62
2022-09-18T06:41:08.413Z,73.12
2022-09-18T06:42:08.866Z,78.75
2022-09-18T06:43:08.275Z,101.25
2022-09-18T06:44:08.864Z,95.62
2022-09-18T06:45:08.284Z,112.50
2022-09-18T06:46:08.245Z,101.25
2022-09-18T06:47:08.244Z,78.75
2022-09-18T06:48:09.142Z,106.88
2022-09-18T06:49:08.264Z,140.62
2022-09-18T06:50:08.276Z,135.00
2022-09-18T06:51:08.293Z,129.38
2022-09-18T06:52:09.134Z,140.62
2022-09-18T06:53:12.499Z,157.50
2022-09-18T06:54:08.186Z,140.62
2022-09-18T06:55:08.321Z,140.62
2022-09-18T06:56:08.313Z,118.12
2022-09-18T06:57:08.223Z,140.62
2022-09-18T06:58:08.223Z,123.75
2022-09-18T06:59:08.173Z,135.00
2022-09-18T07:00:08.262Z,140.62
2022-09-18T07:01:08.343Z,135.00
2022-09-18T07:02:08.706Z,151.88
2022-09-18T07:03:08.192Z,168.75
2022-09-18T07:04:08.281Z,163.12
2022-09-18T07:05:08.291Z,180.00
2022-09-18T07:06:08.309Z,168.75
2022-09-18T07:07:08.213Z,202.50
2022-09-18T07:08:08.220Z,185.62
2022-09-18T07:09:08.203Z,185.62
2022-09-18T07:10:09.227Z,208.12
2022-09-18T07:11:08.390Z,202.50
2022-09-18T07:12:08.414Z,180.00
2022-09-18T07:13:08.422Z,213.75
2022-09-18T07:14:08.410Z,213.75
2022-09-18T07:15:08.439Z,196.88
2022-09-18T07:16:08.522Z,196.88
2022-09-18T07:17:08.340Z,174.38
2022-09-18T07:18:08.461Z,157.50
2022-09-18T07:19:08.466Z,112.50
2022-09-18T07:20:08.481Z,118.12
2022-09-18T07:21:08.501Z,123.75
2022-09-18T07:22:08.418Z,123.75
2022-09-18T07:23:07.998Z,95.62
2022-09-18T07:24:08.098Z,67.50
2022-09-18T07:25:08.512Z,84.38
2022-09-18T07:26:08.564Z,123.75
2022-09-18T07:27:07.937Z,157.50
2022-09-18T07:28:08.097Z,174.38
2022-09-18T07:29:10.133Z,196.88
2022-09-18T07:30:07.958Z,191.25
2022-09-18T07:31:07.999Z,129.38
2022-09-18T07:32:07.980Z,129.38
2022-09-18T07:33:07.946Z,180.00
2022-09-18T07:34:08.184Z,196.88
2022-09-18T07:35:08.081Z,168.75
2022-09-18T07:36:08.035Z,180.00
2022-09-18T07:37:07.915Z,225.00
2022-09-18T07:38:08.072Z,241.88
2022-09-18T07:39:08.415Z,253.12
2022-09-18T07:40:08.034Z,258.75
2022-09-18T07:41:08.424Z,281.25
2022-09-18T07:42:09.027Z,275.62
2022-09-18T07:43:08.444Z,264.38
2022-09-18T07:44:08.283Z,247.50
2022-09-18T07:45:07.998Z,236.25
2022-09-18T07:46:07.930Z,236.25
2022-09-18T07:47:07.934Z,241.88
2022-09-18T07:48:07.983Z,247.50
2022-09-18T07:49:08.046Z,247.50
2022-09-18T07:50:08.075Z,247.50
2022-09-18T07:51:08.275Z,264.38
2022-09-18T07:52:08.292Z,281.25
2022-09-18T07:53:08.302Z,281.25
2022-09-18T07:54:07.872Z,286.88
2022-09-18T07:55:08.322Z,292.50
2022-09-18T07:56:08.373Z,286.88
2022-09-18T07:57:09.223Z,270.00
2022-09-18T07:58:08.461Z,241.88
2022-09-18T07:59:08.583Z,236.25
2022-09-18T08:00:07.931Z,230.62
2022-09-18T08:01:08.344Z,219.38
2022-09-18T08:02:08.761Z,225.00
2022-09-18T08:03:08.010Z,225.00
2022-09-18T08:04:07.731Z,213.75
2022-09-18T08:05:08.001Z,174.38
2022-09-18T08:06:08.508Z,151.88
2022-09-18T08:07:08.576Z,163.12
2022-09-18T08:08:08.381Z,163.12
2022-09-18T08:09:07.972Z,163.12
2022-09-18T08:10:07.910Z,258.75
2022-09-18T08:11:07.779Z,320.62
2022-09-18T08:12:07.993Z,331.88
2022-09-18T08:13:08.332Z,298.12
2022-09-18T08:14:08.509Z,281.25
2022-09-18T08:15:08.659Z,303.75
2022-09-18T08:16:08.616Z,326.25
2022-09-18T08:17:08.329Z,331.88
2022-09-18T08:18:08.628Z,326.25
2022-09-18T08:19:07.658Z,303.75
2022-09-18T08:20:07.638Z,309.38
2022-09-18T08:21:10.614Z,337.50
2022-09-18T08:22:07.676Z,303.75
2022-09-18T08:23:07.627Z,343.12
2022-09-18T08:24:07.667Z,326.25
2022-09-18T08:25:07.609Z,320.62
2022-09-18T08:26:07.877Z,320.62
2022-09-18T08:27:07.545Z,337.50
2022-09-18T08:28:07.529Z,320.62
2022-09-18T08:29:07.537Z,320.62
2022-09-18T08:30:07.576Z,309.38
2022-09-18T08:31:07.578Z,320.62
2022-09-18T08:32:09.877Z,320.62
2022-09-18T08:33:07.527Z,326.25
2022-09-18T08:34:07.526Z,337.50
2022-09-18T08:35:07.883Z,348.75
2022-09-18T08:36:07.533Z,348.75
2022-09-18T08:37:07.464Z,343.12
2022-09-18T08:38:07.452Z,326.25
2022-09-18T08:39:07.497Z,309.38
2022-09-18T08:40:07.544Z,298.12
2022-09-18T08:41:07.446Z,281.25
2022-09-18T08:42:07.424Z,275.62
2022-09-18T08:43:07.422Z,275.62
2022-09-18T08:44:07.403Z,286.88
2022-09-18T08:45:07.613Z,292.50
2022-09-18T08:46:07.406Z,286.88
2022-09-18T08:47:07.441Z,292.50
2022-09-18T08:48:07.387Z,315.00
2022-09-18T08:49:07.396Z,303.75
2022-09-18T08:50:07.382Z,281.25
2022-09-18T08:51:07.376Z,253.12
2022-09-18T08:52:07.351Z,253.12
2022-09-18T08:53:07.343Z,208.12
2022-09-18T08:54:07.342Z,123.75
2022-09-18T08:55:07.412Z,106.88
2022-09-18T08:56:07.341Z,112.50
2022-09-18T08:57:08.654Z,112.50
2022-09-18T08:58:07.313Z,112.50
2022-09-18T08:59:07.312Z,163.12
2022-09-18T09:00:07.342Z,264.38
2022-09-18T09:01:07.340Z,388.12
2022-09-18T09:02:07.369Z,382.50
2022-09-18T09:03:07.290Z,348.75
2022-09-18T09:04:07.280Z,303.75
2022-09-18T09:05:07.432Z,292.50
2022-09-18T09:06:07.271Z,264.38
2022-09-18T09:07:07.249Z,230.62
2022-09-18T09:08:07.264Z,253.12
2022-09-18T09:09:12.286Z,258.75
2022-09-18T09:10:07.249Z,270.00
2022-09-18T09:11:07.233Z,264.38
2022-09-18T09:12:07.229Z,320.62
2022-09-18T09:13:07.259Z,326.25
2022-09-18T09:14:07.402Z,315.00
2022-09-18T09:15:07.228Z,303.75
2022-09-18T09:16:07.217Z,270.00
2022-09-18T09:17:07.235Z,270.00
2022-09-18T09:18:07.188Z,253.12
2022-09-18T09:19:07.198Z,196.88
2022-09-18T09:20:07.197Z,264.38
2022-09-18T09:21:11.663Z,264.38
2022-09-18T09:22:07.163Z,258.75
2022-09-18T09:23:07.218Z,219.38
2022-09-18T09:24:07.147Z,191.25
2022-09-18T09:25:07.274Z,219.38
2022-09-18T09:26:07.147Z,213.75
2022-09-18T09:27:07.117Z,281.25
2022-09-18T09:28:07.116Z,292.50
2022-09-18T09:29:07.128Z,275.62
2022-09-18T09:30:08.125Z,275.62
2022-09-18T09:31:07.142Z,281.25
2022-09-18T09:32:07.308Z,281.25
2022-09-18T09:33:07.328Z,298.12
2022-09-18T09:34:07.077Z,286.88
2022-09-18T09:35:07.293Z,286.88
2022-09-18T09:36:07.146Z,253.12
2022-09-18T09:37:07.118Z,236.25
2022-09-18T09:38:07.113Z,264.38
2022-09-18T09:39:07.147Z,241.88
2022-09-18T09:40:07.179Z,247.50
2022-09-18T09:41:07.335Z,247.50
2022-09-18T09:42:07.345Z,292.50
2022-09-18T09:43:07.293Z,298.12
2022-09-18T09:44:07.027Z,270.00
2022-09-18T09:45:07.026Z,236.25
2022-09-18T09:46:07.015Z,247.50
2022-09-18T09:47:07.031Z,213.75
2022-09-18T09:48:07.017Z,236.25
2022-09-18T09:49:06.992Z,253.12
2022-09-18T09:50:06.994Z,247.50
2022-09-18T09:51:07.003Z,264.38
2022-09-18T09:52:09.253Z,270.00
2022-09-18T09:53:06.942Z,264.38
2022-09-18T09:54:06.941Z,258.75
2022-09-18T09:55:07.061Z,236.25
2022-09-18T09:56:07.043Z,208.12
2022-09-18T09:57:06.921Z,202.50
2022-09-18T09:58:07.088Z,236.25
2022-09-18T09:59:08.649Z,275.62
2022-09-18T10:00:07.099Z,309.38
2022-09-18T10:01:06.983Z,309.38
2022-09-18T10:02:06.951Z,275.62
2022-09-18T10:03:06.879Z,286.88
2022-09-18T10:04:06.880Z,315.00
2022-09-18T10:05:06.917Z,258.75
2022-09-18T10:06:07.290Z,146.25
2022-09-18T10:07:07.299Z,101.25
2022-09-18T10:08:06.849Z,118.12
2022-09-18T10:09:06.839Z,106.88
2022-09-18T10:10:07.209Z,101.25
2022-09-18T10:11:06.839Z,123.75
2022-09-18T10:12:06.910Z,163.12
2022-09-18T10:13:07.339Z,146.25
2022-09-18T10:14:06.809Z,157.50
2022-09-18T10:15:06.856Z,151.88
2022-09-18T10:16:06.870Z,191.25
2022-09-18T10:17:06.957Z,163.12
2022-09-18T10:18:06.777Z,208.12
2022-09-18T10:19:06.967Z,258.75
2022-09-18T10:20:06.767Z,241.88
2022-09-18T10:21:07.026Z,180.00
2022-09-18T10:22:07.305Z,225.00
2022-09-18T10:23:06.746Z,135.00
2022-09-18T10:24:06.738Z,106.88
2022-09-18T10:25:07.208Z,84.38
2022-09-18T10:26:07.247Z,84.38
2022-09-18T10:27:06.824Z,73.12
2022-09-18T10:28:06.836Z,112.50
2022-09-18T10:29:06.725Z,84.38
2022-09-18T10:30:06.733Z,90.00
2022-09-18T10:31:06.905Z,101.25
2022-09-18T10:32:06.832Z,112.50
2022-09-18T10:33:06.923Z,180.00
2022-09-18T10:34:07.075Z,180.00
2022-09-18T10:35:06.934Z,354.38
2022-09-18T10:36:07.095Z,421.88
2022-09-18T10:37:07.103Z,416.25
2022-09-18T10:38:07.261Z,371.25
2022-09-18T10:39:07.314Z,337.50
2022-09-18T10:40:06.709Z,315.00
2022-09-18T10:41:06.633Z,298.12
2022-09-18T10:42:07.336Z,281.25
2022-09-18T10:43:07.106Z,275.62
2022-09-18T10:44:06.653Z,270.00
2022-09-18T10:45:07.132Z,275.62
2022-09-18T10:46:06.732Z,281.25
2022-09-18T10:47:07.583Z,286.88
2022-09-18T10:48:07.553Z,286.88
2022-09-18T10:49:07.021Z,286.88
2022-09-18T10:50:06.579Z,281.25
2022-09-18T10:51:06.572Z,286.88
2022-09-18T10:52:06.641Z,286.88
2022-09-18T10:53:06.574Z,286.88
2022-09-18T10:54:06.592Z,292.50
2022-09-18T10:55:06.651Z,286.88
2022-09-18T10:56:06.660Z,281.25
2022-09-18T10:57:06.700Z,275.62
2022-09-18T10:58:06.810Z,275.62
2022-09-18T10:59:06.819Z,281.25
2022-09-18T11:00:06.890Z,281.25
2022-09-18T11:01:06.598Z,286.88
2022-09-18T11:02:07.153Z,303.75
2022-09-18T11:03:06.477Z,303.75
2022-09-18T11:04:06.517Z,303.75
2022-09-18T11:05:06.471Z,292.50
2022-09-18T11:06:06.519Z,303.75
2022-09-18T11:07:06.529Z,298.12
2022-09-18T11:08:06.542Z,292.50
2022-09-18T11:09:06.431Z,275.62
2022-09-18T11:10:06.433Z,303.75
2022-09-18T11:11:06.431Z,320.62
2022-09-18T11:12:06.429Z,309.38
2022-09-18T11:13:06.458Z,309.38
2022-09-18T11:14:06.467Z,326.25
2022-09-18T11:15:06.409Z,331.88
2022-09-18T11:16:06.490Z,348.75
2022-09-18T11:17:06.508Z,388.12
2022-09-18T11:18:06.398Z,376.88
2022-09-18T11:19:07.519Z,376.88
2022-09-18T11:20:06.547Z,388.12
2022-09-18T11:21:06.570Z,360.00
2022-09-18T11:22:06.575Z,360.00
2022-09-18T11:23:06.587Z,343.12
2022-09-18T11:24:06.339Z,331.88
2022-09-18T11:25:06.612Z,331.88
2022-09-18T11:26:06.626Z,292.50
2022-09-18T11:27:06.465Z,320.62
2022-09-18T11:28:06.365Z,388.12
2022-09-18T11:29:06.354Z,399.38
2022-09-18T11:30:06.314Z,427.50
2022-09-18T11:31:06.362Z,433.12
2022-09-18T11:32:06.401Z,416.25
2022-09-18T11:33:06.275Z,399.38
2022-09-18T11:34:06.591Z,382.50
2022-09-18T11:35:06.254Z,348.75
2022-09-18T11:36:06.257Z,331.88
2022-09-18T11:37:06.253Z,315.00
2022-09-18T11:38:06.258Z,303.75
2022-09-18T11:39:06.612Z,286.88
2022-09-18T11:40:06.263Z,270.00
2022-09-18T11:41:06.211Z,258.75
2022-09-18T11:42:06.232Z,247.50
2022-09-18T11:43:06.362Z,247.50
2022-09-18T11:44:06.202Z,247.50
2022-09-18T11:45:06.193Z,253.12
2022-09-18T11:46:06.204Z,270.00
2022-09-18T11:47:06.256Z,292.50
2022-09-18T11:48:06.913Z,303.75
2022-09-18T11:49:06.781Z,303.75
2022-09-18T11:50:06.940Z,320.62
2022-09-18T11:51:06.252Z,343.12
2022-09-18T11:52:06.962Z,354.38
2022-09-18T11:53:06.971Z,348.75
2022-09-18T11:54:06.993Z,337.50
2022-09-18T11:55:06.853Z,326.25
2022-09-18T11:56:07.010Z,326.25
2022-09-18T11:57:06.581Z,326.25
2022-09-18T11:58:06.969Z,331.88
2022-09-18T11:59:07.049Z,326.25
2022-09-18T12:00:06.391Z,320.62
2022-09-18T12:01:06.089Z,326.25
2022-09-18T12:02:06.479Z,343.12
2022-09-18T12:03:07.105Z,365.62
2022-09-18T12:04:06.909Z,360.00
2022-09-18T12:05:06.309Z,354.38
2022-09-18T12:06:06.967Z,354.38
2022-09-18T12:07:06.146Z,354.38
2022-09-18T12:08:04.768Z,348.75
2022-09-18T12:09:04.721Z,320.62
2022-09-18T12:10:04.710Z,286.88
2022-09-18T12:11:04.789Z,281.25
2022-09-18T12:12:04.908Z,286.88
2022-09-18T12:13:04.696Z,292.50
2022-09-18T12:14:04.696Z,292.50
2022-09-18T12:15:05.085Z,292.50
2022-09-18T12:16:04.955Z,286.88
2022-09-18T12:17:05.142Z,270.00
2022-09-18T12:18:05.152Z,264.38
2022-09-18T12:19:05.152Z,258.75
2022-09-18T12:20:05.263Z,258.75
2022-09-18T12:21:05.267Z,253.12
2022-09-18T12:22:04.749Z,258.75
2022-09-18T12:23:05.147Z,270.00
2022-09-18T12:24:04.596Z,298.12
2022-09-18T12:25:04.575Z,320.62
2022-09-18T12:26:04.587Z,326.25
2022-09-18T12:27:04.596Z,315.00
2022-09-18T12:28:04.577Z,298.12
2022-09-18T12:29:04.694Z,270.00
2022-09-18T12:30:04.701Z,253.12
2022-09-18T12:31:04.736Z,225.00
2022-09-18T12:32:04.820Z,202.50
2022-09-18T12:33:04.606Z,180.00
2022-09-18T12:34:04.555Z,168.75
2022-09-18T12:35:04.935Z,174.38
2022-09-18T12:36:04.628Z,163.12
2022-09-18T12:37:04.523Z,135.00
2022-09-18T12:38:05.070Z,106.88
2022-09-18T12:39:05.735Z,95.62
2022-09-18T12:40:06.075Z,95.62
2022-09-18T12:41:05.843Z,101.25
2022-09-18T12:42:05.850Z,112.50
2022-09-18T12:43:05.129Z,112.50
2022-09-18T12:44:05.139Z,112.50
2022-09-18T12:45:05.148Z,90.00
2022-09-18T12:46:05.190Z,78.75
2022-09-18T12:47:05.256Z,67.50
2022-09-18T12:48:05.263Z,95.62
2022-09-18T12:49:05.273Z,106.88
2022-09-18T12:50:05.381Z,118.12
2022-09-18T12:51:05.391Z,123.75